Time;durP1;ratioP1;P1;durP2;ratioP2;P2;SDS_P1;SDS_P2;PMS_P1;PMS_P2;Temp;Humidity;BMP_temperature;BMP_pressure;BME280_temperature;BME280_humidity;BME280_pressure;Samples;Min_cycle;Max_cycle;Signal;HPM_P1;HPM_P2
2022/11/06 00:00:28;;;;;;;5.25;2.33;;;10.40;99.90;;;;;;5046559;28;20185;-69
2022/11/06 00:02:59;;;;;;;5.53;1.98;;;10.50;99.90;;;;;;5044701;28;20052;-69
2022/11/06 00:08:10;;;;;;;5.78;2.50;;;10.40;99.90;;;;;;5062631;28;20498;-69
2022/11/06 00:10:36;;;;;;;3.15;1.65;;;10.40;99.90;;;;;;5050169;28;20045;-69
2022/11/06 00:13:01;;;;;;;5.10;2.45;;;10.40;99.90;;;;;;5050640;28;20417;-69
2022/11/06 00:15:27;;;;;;;4.32;1.95;;;10.40;99.90;;;;;;5044079;28;20040;-69
2022/11/06 00:17:53;;;;;;;3.63;2.22;;;10.40;99.90;;;;;;5048813;28;20045;-68
2022/11/06 00:20:19;;;;;;;3.30;1.90;;;10.30;99.90;;;;;;5047826;28;20040;-69
2022/11/06 00:22:44;;;;;;;3.58;2.38;;;10.30;99.90;;;;;;5051161;28;20057;-69
2022/11/06 00:25:10;;;;;;;3.05;1.73;;;10.30;99.90;;;;;;5056647;28;20037;-69
2022/11/06 00:27:37;;;;;;;5.32;1.88;;;10.30;99.90;;;;;;5046353;28;20217;-69
2022/11/06 00:30:05;;;;;;;6.25;2.15;;;10.30;99.90;;;;;;5051856;28;20048;-69
2022/11/06 00:32:31;;;;;;;4.15;1.98;;;10.30;99.90;;;;;;5046800;28;20037;-69
2022/11/06 00:34:56;;;;;;;3.28;1.80;;;10.30;99.90;;;;;;5050494;28;20032;-69
2022/11/06 00:37:22;;;;;;;6.68;2.28;;;10.30;99.90;;;;;;5042451;28;20036;-69
2022/11/06 00:39:48;;;;;;;3.63;1.73;;;10.30;99.90;;;;;;5047340;28;20029;-69
2022/11/06 00:42:13;;;;;;;5.50;2.60;;;10.30;99.90;;;;;;5046435;28;20110;-69
2022/11/06 00:44:39;;;;;;;3.05;1.50;;;10.30;99.90;;;;;;5051712;28;22262;-69
2022/11/06 00:47:05;;;;;;;5.05;2.22;;;10.30;99.90;;;;;;5054204;28;20028;-69
2022/11/06 00:49:30;;;;;;;3.63;1.70;;;10.20;99.90;;;;;;5046999;28;20040;-69
2022/11/06 00:51:56;;;;;;;6.07;1.88;;;10.20;99.90;;;;;;5047621;28;20052;-69
2022/11/06 00:54:21;;;;;;;3.88;1.77;;;10.20;99.90;;;;;;5032775;28;20452;-69
2022/11/06 00:56:47;;;;;;;4.95;2.35;;;10.20;99.90;;;;;;5050779;28;20037;-69
2022/11/06 00:59:13;;;;;;;3.20;1.80;;;10.20;99.90;;;;;;5066295;28;20576;-69
2022/11/06 01:01:41;;;;;;;3.95;2.28;;;10.20;99.90;;;;;;5046449;28;20033;-69
2022/11/06 01:04:19;;;;;;;2.88;1.60;;;10.20;99.90;;;;;;5051173;28;20071;-69
2022/11/06 01:06:47;;;;;;;2.45;1.50;;;10.20;99.90;;;;;;5045008;28;20120;-69
2022/11/06 01:09:15;;;;;;;3.72;1.42;;;10.20;99.90;;;;;;5062760;28;20132;-69
2022/11/06 01:11:53;;;;;;;4.47;2.30;;;10.20;99.90;;;;;;5054019;28;20040;-69
2022/11/06 01:14:20;;;;;;;4.47;2.25;;;10.20;99.90;;;;;;5045423;28;20082;-69
2022/11/06 01:16:46;;;;;;;5.03;2.00;;;10.20;99.90;;;;;;5052266;28;20033;-69
2022/11/06 01:19:13;;;;;;;3.45;1.75;;;10.20;99.90;;;;;;5032528;28;20037;-69
2022/11/06 01:21:45;;;;;;;4.47;2.08;;;10.20;99.90;;;;;;5054004;28;20491;-69
2022/11/06 01:24:13;;;;;;;5.35;1.58;;;10.20;99.90;;;;;;5051464;28;20036;-69
2022/11/06 01:26:39;;;;;;;3.92;1.95;;;10.20;99.90;;;;;;5050768;28;20513;-68
2022/11/06 01:29:08;;;;;;;4.53;2.13;;;10.20;99.90;;;;;;5034658;28;20049;-69
2022/11/06 01:31:34;;;;;;;3.58;1.77;;;10.10;99.90;;;;;;5053465;28;20509;-69
2022/11/06 01:34:01;;;;;;;3.92;2.08;;;10.10;99.90;;;;;;5052674;28;20037;-69
2022/11/06 01:36:28;;;;;;;8.40;2.83;;;10.10;99.90;;;;;;5056586;28;20051;-69
2022/11/06 01:38:56;;;;;;;3.75;2.17;;;10.10;99.90;;;;;;5050296;28;20047;-69
2022/11/06 01:41:24;;;;;;;4.20;2.33;;;10.10;99.90;;;;;;5048582;28;20099;-69
2022/11/06 01:43:58;;;;;;;3.17;1.80;;;10.00;99.90;;;;;;5052773;28;20076;-69
2022/11/06 01:46:26;;;;;;;3.17;1.80;;;10.00;99.90;;;;;;5054237;28;20033;-69
2022/11/06 01:49:18;;;;;;;4.68;2.35;;;10.00;99.90;;;;;;5056187;28;20127;-68
2022/11/06 01:51:51;;;;;;;9.40;2.30;;;10.00;99.90;;;;;;5051168;28;20148;-69
2022/11/06 01:54:19;;;;;;;4.35;2.15;;;10.00;99.90;;;;;;5053948;28;20174;-69
2022/11/06 01:56:48;;;;;;;2.65;1.98;;;9.90;99.90;;;;;;5055499;28;20534;-68
2022/11/06 01:59:17;;;;;;;5.47;1.98;;;9.90;99.90;;;;;;5060684;28;20044;-71
2022/11/06 02:01:43;;;;;;;5.43;2.60;;;9.90;99.90;;;;;;5049791;28;20048;-69
2022/11/06 02:04:14;;;;;;;4.75;2.33;;;9.90;99.90;;;;;;5048503;28;20048;-69
2022/11/06 02:06:40;;;;;;;3.90;2.47;;;9.90;99.90;;;;;;5048722;28;20179;-69
2022/11/06 02:09:10;;;;;;;3.70;2.10;;;9.90;99.90;;;;;;5048839;28;20131;-68
2022/11/06 02:11:44;;;;;;;3.70;2.40;;;9.90;99.90;;;;;;5052919;28;20041;-69
2022/11/06 02:14:31;;;;;;;4.22;2.45;;;9.90;99.90;;;;;;5053943;28;20024;-69
2022/11/06 02:17:20;;;;;;;6.55;2.40;;;9.90;99.90;;;;;;5050897;28;20044;-69
2022/11/06 02:20:01;;;;;;;5.90;2.00;;;9.90;99.90;;;;;;5071055;28;20102;-69
2022/11/06 02:22:50;;;;;;;4.57;2.38;;;9.90;99.90;;;;;;5050961;28;20040;-69
2022/11/06 02:25:42;;;;;;;3.22;1.90;;;9.90;99.90;;;;;;5052125;28;20044;-69
2022/11/06 02:28:42;;;;;;;4.53;2.85;;;9.90;99.90;;;;;;5053765;28;20493;-69
2022/11/06 02:31:12;;;;;;;4.63;2.50;;;9.90;99.90;;;;;;5051965;28;20048;-68
2022/11/06 02:33:46;;;;;;;6.20;2.35;;;9.80;99.90;;;;;;5049374;28;20037;-68
2022/11/06 02:36:18;;;;;;;3.08;2.08;;;9.80;99.90;;;;;;5047982;28;20028;-68
2022/11/06 02:38:49;;;;;;;4.75;2.20;;;9.80;99.90;;;;;;5048064;28;20482;-69
2022/11/06 02:41:29;;;;;;;6.00;2.17;;;9.80;99.90;;;;;;5049151;28;20040;-69
2022/11/06 02:43:56;;;;;;;3.75;1.95;;;9.80;99.90;;;;;;5054869;28;20054;-68
2022/11/06 02:46:36;;;;;;;5.03;2.30;;;9.80;99.90;;;;;;5052813;28;20098;-69
2022/11/06 02:49:35;;;;;;;5.72;2.35;;;9.80;99.90;;;;;;5058661;28;20486;-69
2022/11/06 02:52:11;;;;;;;3.80;1.90;;;9.80;99.90;;;;;;5073248;28;20452;-69
2022/11/06 02:54:42;;;;;;;3.80;2.42;;;9.80;99.90;;;;;;5070174;28;20051;-69
2022/11/06 02:57:13;;;;;;;3.03;1.85;;;9.80;99.90;;;;;;5053255;28;20037;-69
2022/11/06 03:00:00;;;;;;;3.78;2.33;;;9.80;99.90;;;;;;5047083;28;20950;-69
2022/11/06 03:02:32;;;;;;;5.38;2.58;;;9.80;99.90;;;;;;5054947;28;20119;-69
2022/11/06 03:05:04;;;;;;;5.85;1.95;;;9.80;99.90;;;;;;5047153;28;20124;-69
2022/11/06 03:07:39;;;;;;;3.13;1.25;;;9.80;99.90;;;;;;5046969;28;20044;-69
2022/11/06 03:10:06;;;;;;;3.00;1.70;;;9.80;99.90;;;;;;5047622;28;20056;-69
2022/11/06 03:12:52;;;;;;;9.73;2.10;;;9.80;99.90;;;;;;5054404;28;20391;-69
2022/11/06 03:15:30;;;;;;;6.22;1.88;;;9.90;99.90;;;;;;5059048;28;20044;-69
2022/11/06 03:18:11;;;;;;;3.38;1.50;;;9.80;99.90;;;;;;5053830;28;20032;-69
2022/11/06 03:20:57;;;;;;;3.05;1.40;;;9.80;99.90;;;;;;5053008;28;20055;-69
2022/11/06 03:23:34;;;;;;;4.18;2.20;;;9.90;99.90;;;;;;5050827;28;20527;-69
2022/11/06 03:26:16;;;;;;;4.20;2.28;;;9.90;99.90;;;;;;5057162;28;20138;-69
2022/11/06 03:29:11;;;;;;;3.35;2.10;;;9.90;99.90;;;;;;5055923;28;20691;-71
2022/11/06 03:31:52;;;;;;;2.72;1.65;;;9.90;99.90;;;;;;5046041;28;20402;-69
2022/11/06 03:34:31;;;;;;;3.47;1.98;;;9.80;99.90;;;;;;5050019;28;20043;-69
2022/11/06 03:37:04;;;;;;;4.32;1.70;;;9.80;99.90;;;;;;5051223;28;20056;-69
2022/11/06 03:39:36;;;;;;;5.80;2.15;;;9.80;99.90;;;;;;5047541;28;20901;-69
2022/11/06 03:42:13;;;;;;;3.45;1.90;;;9.80;99.90;;;;;;5047103;28;20052;-69
2022/11/06 03:44:43;;;;;;;4.63;2.00;;;9.80;99.90;;;;;;5051160;28;20063;-69
2022/11/06 03:47:21;;;;;;;2.92;1.30;;;9.80;99.90;;;;;;5047556;28;20048;-69
2022/11/06 03:50:03;;;;;;;4.63;1.98;;;9.80;99.90;;;;;;5053248;28;20037;-69
2022/11/06 03:52:43;;;;;;;3.65;2.03;;;9.80;99.90;;;;;;5050810;28;20052;-69
2022/11/06 03:55:17;;;;;;;2.70;1.23;;;9.80;99.90;;;;;;5051245;28;20029;-69
2022/11/06 03:57:49;;;;;;;4.78;2.00;;;9.70;99.90;;;;;;5049199;28;20545;-69
2022/11/06 04:00:19;;;;;;;3.67;1.80;;;9.70;99.90;;;;;;5063031;28;20520;-69
2022/11/06 04:02:50;;;;;;;3.22;1.85;;;9.70;99.90;;;;;;5053609;28;20434;-69
2022/11/06 04:05:21;;;;;;;2.30;1.30;;;9.80;99.90;;;;;;5049047;28;20045;-69
2022/11/06 04:16:16;;;;;;;5.32;2.10;;;9.80;99.90;;;;;;5048267;28;20043;-69
2022/11/06 04:18:42;;;;;;;2.78;1.60;;;9.70;99.90;;;;;;5051715;28;20850;-69
2022/11/06 04:21:24;;;;;;;7.40;1.75;;;9.70;99.90;;;;;;5054063;28;20079;-69
2022/11/06 04:27:17;;;;;;;3.47;1.60;;;9.70;99.90;;;;;;5045651;28;20045;-69
2022/11/06 04:30:00;;;;;;;5.90;1.75;;;9.70;99.90;;;;;;5048172;28;20045;-69
2022/11/06 04:32:52;;;;;;;2.53;1.65;;;9.70;99.90;;;;;;5050331;28;20075;-69
2022/11/06 04:35:36;;;;;;;4.50;1.55;;;9.70;99.90;;;;;;5056815;28;20463;-69
2022/11/06 04:38:09;;;;;;;2.28;1.42;;;9.70;99.90;;;;;;5048986;28;20037;-69
2022/11/06 04:40:51;;;;;;;4.93;1.77;;;9.70;99.90;;;;;;5047165;28;20088;-69
2022/11/06 04:43:46;;;;;;;4.05;1.60;;;9.70;99.90;;;;;;5049287;28;20102;-69
2022/11/06 04:46:19;;;;;;;3.03;1.45;;;9.70;99.90;;;;;;5048915;28;20033;-69
2022/11/06 04:48:46;;;;;;;4.68;1.77;;;9.70;99.90;;;;;;5047503;28;20040;-69
2022/11/06 04:51:14;;;;;;;2.47;1.40;;;9.80;99.90;;;;;;5035551;28;20041;-69
2022/11/06 04:53:40;;;;;;;3.67;1.67;;;9.70;99.90;;;;;;5035140;28;20124;-69
2022/11/06 04:56:10;;;;;;;6.45;1.80;;;9.80;99.90;;;;;;5053591;28;20051;-69
2022/11/06 04:58:37;;;;;;;2.45;1.60;;;9.80;99.90;;;;;;5057172;28;20032;-69
2022/11/06 05:01:03;;;;;;;2.75;1.63;;;9.80;99.90;;;;;;5050839;28;20041;-69
2022/11/06 05:03:29;;;;;;;4.18;1.73;;;9.80;99.90;;;;;;5056872;28;20044;-69
2022/11/06 05:05:54;;;;;;;2.97;1.60;;;9.80;99.90;;;;;;5052224;28;20478;-69
2022/11/06 05:08:20;;;;;;;3.30;1.33;;;9.80;99.90;;;;;;5051751;28;20048;-69
2022/11/06 05:10:46;;;;;;;5.63;1.33;;;9.70;99.90;;;;;;5049829;28;20044;-69
2022/11/06 05:13:13;;;;;;;5.55;1.48;;;9.70;99.90;;;;;;5050882;28;20285;-69
2022/11/06 05:15:39;;;;;;;2.17;1.13;;;9.80;99.90;;;;;;5052637;28;20033;-69
2022/11/06 05:18:05;;;;;;;3.47;1.40;;;9.80;99.90;;;;;;5053182;28;20037;-69
2022/11/06 05:20:32;;;;;;;4.55;1.50;;;9.80;99.90;;;;;;5051740;28;20135;-69
2022/11/06 05:22:59;;;;;;;1.80;1.15;;;9.80;99.90;;;;;;5048658;28;20045;-69
2022/11/06 05:25:30;;;;;;;9.48;1.88;;;9.80;99.90;;;;;;5069530;28;20391;-69
2022/11/06 05:27:55;;;;;;;1.85;1.13;;;9.80;99.90;;;;;;5054690;28;20048;-69
2022/11/06 05:30:23;;;;;;;1.95;1.17;;;9.80;99.90;;;;;;5047293;28;20063;-69
2022/11/06 05:32:48;;;;;;;2.15;1.25;;;9.80;99.90;;;;;;5052713;28;20051;-69
2022/11/06 05:35:15;;;;;;;3.20;1.40;;;9.80;99.90;;;;;;5055699;28;20487;-69
2022/11/06 05:37:41;;;;;;;5.90;1.33;;;9.80;99.90;;;;;;5049456;28;20036;-69
2022/11/06 05:40:10;;;;;;;3.15;1.80;;;9.80;99.90;;;;;;5052151;28;20478;-69
2022/11/06 05:42:39;;;;;;;1.75;1.10;;;9.80;99.90;;;;;;5053232;28;20447;-69
2022/11/06 05:45:06;;;;;;;1.92;1.13;;;9.80;99.90;;;;;;5052675;28;20501;-69
2022/11/06 05:47:33;;;;;;;2.25;1.15;;;9.80;99.90;;;;;;5053130;28;20040;-69
2022/11/06 05:49:58;;;;;;;2.47;1.08;;;9.80;99.90;;;;;;5053381;28;20749;-69
2022/11/06 05:52:24;;;;;;;1.83;0.90;;;9.80;99.90;;;;;;5054576;28;20033;-69
2022/11/06 05:54:50;;;;;;;2.20;1.10;;;9.80;99.90;;;;;;5055612;28;20681;-69
2022/11/06 05:57:15;;;;;;;2.95;1.15;;;9.80;99.90;;;;;;5049909;28;20040;-69
2022/11/06 05:59:41;;;;;;;3.38;1.20;;;9.80;99.90;;;;;;5051236;28;20123;-69
2022/11/06 06:02:07;;;;;;;3.00;1.08;;;9.90;99.90;;;;;;5051897;28;20041;-69
2022/11/06 06:04:33;;;;;;;1.45;0.98;;;9.90;99.90;;;;;;5048380;28;20163;-69
2022/11/06 06:06:59;;;;;;;1.95;1.20;;;9.90;99.90;;;;;;5051200;28;20032;-69
2022/11/06 06:09:25;;;;;;;1.60;1.02;;;9.90;99.90;;;;;;5052712;28;20057;-69
2022/11/06 06:11:52;;;;;;;1.52;0.80;;;9.90;99.90;;;;;;5051115;28;20049;-69
2022/11/06 06:14:18;;;;;;;2.75;1.25;;;9.90;99.90;;;;;;5053591;28;20060;-69
2022/11/06 06:16:43;;;;;;;5.82;1.20;;;9.90;99.90;;;;;;5052525;28;20060;-69
2022/11/06 06:19:09;;;;;;;2.25;0.88;;;9.90;99.90;;;;;;5054719;28;20447;-69
2022/11/06 06:21:35;;;;;;;1.17;0.73;;;9.90;99.90;;;;;;5037114;28;20044;-69
2022/11/06 06:24:02;;;;;;;2.80;1.08;;;9.90;99.90;;;;;;5046814;28;20116;-69
2022/11/06 06:26:28;;;;;;;6.78;1.20;;;9.90;99.90;;;;;;5053676;28;20051;-69
2022/11/06 06:28:53;;;;;;;3.08;1.02;;;9.90;99.90;;;;;;5067195;28;20433;-69
2022/11/06 06:31:19;;;;;;;2.92;1.30;;;9.90;99.90;;;;;;5050677;28;20029;-69
2022/11/06 06:33:45;;;;;;;2.92;1.10;;;10.00;99.90;;;;;;5054899;28;20037;-69
2022/11/06 06:36:10;;;;;;;1.45;0.80;;;10.00;99.90;;;;;;5047072;28;20040;-69
2022/11/06 06:38:36;;;;;;;2.85;1.40;;;10.00;99.90;;;;;;5047526;28;20029;-69
2022/11/06 06:41:03;;;;;;;2.92;1.20;;;10.00;99.90;;;;;;5058078;28;20461;-69
2022/11/06 06:43:29;;;;;;;2.85;0.88;;;10.00;99.90;;;;;;5055663;28;20418;-69
2022/11/06 06:45:59;;;;;;;2.03;1.25;;;10.00;99.90;;;;;;5052674;28;20037;-69
2022/11/06 06:48:25;;;;;;;1.25;0.77;;;10.00;99.90;;;;;;5052661;28;20029;-69
2022/11/06 06:50:51;;;;;;;2.33;1.10;;;10.00;99.90;;;;;;5057625;28;20478;-69
2022/11/06 06:53:16;;;;;;;2.28;0.80;;;10.10;99.90;;;;;;5056544;28;20076;-69
2022/11/06 06:55:42;;;;;;;4.18;0.90;;;10.10;99.90;;;;;;5048473;28;20142;-69
2022/11/06 06:58:09;;;;;;;4.20;0.90;;;10.10;99.90;;;;;;5052775;28;20120;-69
2022/11/06 07:00:35;;;;;;;1.08;0.57;;;10.10;99.90;;;;;;5049550;28;20507;-69
2022/11/06 07:03:01;;;;;;;4.13;0.82;;;10.10;99.90;;;;;;5046936;28;20040;-69
2022/11/06 07:05:26;;;;;;;3.92;1.63;;;10.10;99.90;;;;;;5052342;28;20444;-69
2022/11/06 07:07:52;;;;;;;1.80;0.90;;;10.20;99.90;;;;;;5045479;28;20029;-69
2022/11/06 07:10:18;;;;;;;5.63;1.00;;;10.20;99.90;;;;;;5052443;28;20080;-69
2022/11/06 07:12:44;;;;;;;4.30;1.20;;;10.20;99.90;;;;;;5056811;28;20402;-69
2022/11/06 07:15:10;;;;;;;1.30;0.80;;;10.20;99.90;;;;;;5049365;28;20040;-69
2022/11/06 07:17:35;;;;;;;1.80;0.40;;;10.20;99.90;;;;;;5060255;28;20046;-69
2022/11/06 07:20:02;;;;;;;3.13;1.23;;;10.20;99.90;;;;;;5049002;28;20029;-69
2022/11/06 07:22:28;;;;;;;1.80;0.93;;;10.30;99.90;;;;;;5034555;28;20097;-69
2022/11/06 07:24:53;;;;;;;1.45;0.82;;;10.30;99.90;;;;;;5050218;28;20074;-69
2022/11/06 07:27:19;;;;;;;7.30;1.05;;;10.30;99.90;;;;;;5043902;28;20056;-69
2022/11/06 07:29:44;;;;;;;1.38;0.73;;;10.30;99.90;;;;;;5068606;28;20033;-70
2022/11/06 07:32:10;;;;;;;1.90;0.98;;;10.30;99.90;;;;;;5052397;28;20048;-69
2022/11/06 07:34:37;;;;;;;2.85;1.30;;;10.30;99.90;;;;;;5052496;28;20036;-70
2022/11/06 07:37:04;;;;;;;2.60;1.05;;;10.40;99.90;;;;;;5051880;28;20184;-69
2022/11/06 07:39:30;;;;;;;1.33;0.60;;;10.40;99.90;;;;;;5048885;28;20040;-70
2022/11/06 07:41:56;;;;;;;1.17;0.55;;;10.40;99.90;;;;;;5050067;28;20036;-69
2022/11/06 07:44:21;;;;;;;1.98;0.85;;;10.40;99.90;;;;;;5050258;28;20045;-69
2022/11/06 07:46:47;;;;;;;3.38;0.98;;;10.40;99.90;;;;;;5061828;28;20094;-68
2022/11/06 07:49:14;;;;;;;6.70;1.10;;;10.40;99.90;;;;;;5051298;28;20060;-69
2022/11/06 07:51:41;;;;;;;1.55;0.95;;;10.40;99.90;;;;;;5051743;28;20037;-69
2022/11/06 07:54:06;;;;;;;1.73;0.82;;;10.50;99.90;;;;;;5048070;28;20128;-69
2022/11/06 07:56:32;;;;;;;1.48;0.80;;;10.50;99.90;;;;;;5034721;28;20123;-69
2022/11/06 07:58:58;;;;;;;1.63;0.77;;;10.40;99.90;;;;;;5063310;28;20144;-69
2022/11/06 08:01:24;;;;;;;1.80;0.90;;;10.50;99.90;;;;;;5049940;28;20052;-70
2022/11/06 08:03:49;;;;;;;2.72;0.95;;;10.40;99.90;;;;;;5047348;28;20040;-70
2022/11/06 08:06:15;;;;;;;2.38;0.65;;;10.40;99.90;;;;;;5038330;28;21787;-70
2022/11/06 08:08:41;;;;;;;5.10;0.68;;;10.40;99.90;;;;;;5039936;28;20075;-70
2022/11/06 08:11:08;;;;;;;3.55;0.47;;;10.40;99.90;;;;;;5040038;28;20201;-70
2022/11/06 08:13:36;;;;;;;1.80;0.60;;;10.40;99.90;;;;;;5043429;28;20094;-70
2022/11/06 08:16:10;;;;;;;6.22;1.35;;;10.40;99.90;;;;;;5031946;28;20379;-70
2022/11/06 08:18:36;;;;;;;2.28;0.90;;;10.40;99.90;;;;;;5048093;28;20037;-70
2022/11/06 08:21:03;;;;;;;1.02;0.63;;;10.40;99.90;;;;;;5025797;28;20037;-70
2022/11/06 08:23:29;;;;;;;3.40;0.77;;;10.50;99.90;;;;;;5055684;28;20891;-70
2022/11/06 08:25:56;;;;;;;1.40;0.60;;;10.40;99.90;;;;;;5045549;28;20041;-70
2022/11/06 08:28:23;;;;;;;2.33;0.68;;;10.40;99.90;;;;;;5051371;28;20053;-70
2022/11/06 08:30:49;;;;;;;2.58;0.93;;;10.50;99.90;;;;;;5051619;28;20087;-70
2022/11/06 08:33:14;;;;;;;1.15;0.65;;;10.50;99.90;;;;;;5054129;28;20041;-70
2022/11/06 08:35:40;;;;;;;1.73;0.80;;;10.50;99.90;;;;;;5048568;28;20041;-73
2022/11/06 08:38:05;;;;;;;1.38;0.40;;;10.50;99.90;;;;;;5052175;28;20024;-70
2022/11/06 08:40:31;;;;;;;1.55;0.60;;;10.50;99.90;;;;;;5034952;28;20052;-70
2022/11/06 08:43:02;;;;;;;1.75;0.90;;;10.50;99.90;;;;;;5048197;28;20051;-70
2022/11/06 08:45:28;;;;;;;1.50;0.80;;;10.50;99.90;;;;;;5048121;28;20045;-70
2022/11/06 08:47:54;;;;;;;1.55;0.82;;;10.50;99.90;;;;;;5045094;28;20251;-71
2022/11/06 08:50:19;;;;;;;1.67;0.70;;;10.50;99.90;;;;;;5045864;28;20286;-71
2022/11/06 08:52:45;;;;;;;2.15;1.00;;;10.50;99.90;;;;;;5030996;28;20048;-71
2022/11/06 08:55:11;;;;;;;0.98;0.63;;;10.50;99.90;;;;;;5041191;28;20045;-71
2022/11/06 08:57:36;;;;;;;1.05;0.43;;;10.50;99.90;;;;;;5038575;28;20052;-71
2022/11/06 09:00:03;;;;;;;1.33;0.82;;;10.50;99.90;;;;;;5049065;28;20522;-70
2022/11/06 09:02:28;;;;;;;3.60;0.70;;;10.50;99.90;;;;;;5044701;28;20045;-71
2022/11/06 09:04:54;;;;;;;1.58;0.60;;;10.50;99.90;;;;;;5042577;28;20142;-71
2022/11/06 09:07:20;;;;;;;3.22;0.77;;;10.50;99.90;;;;;;5048531;28;20048;-71
2022/11/06 09:09:45;;;;;;;1.00;0.60;;;10.50;99.90;;;;;;5060929;28;20048;-71
2022/11/06 09:12:11;;;;;;;0.98;0.57;;;10.60;99.90;;;;;;5044195;28;20477;-70
2022/11/06 09:14:38;;;;;;;1.58;0.50;;;10.60;99.90;;;;;;5045379;28;20028;-71
2022/11/06 09:17:04;;;;;;;5.38;0.70;;;10.60;99.90;;;;;;5052254;28;20325;-71
2022/11/06 09:19:30;;;;;;;2.90;0.90;;;10.60;99.90;;;;;;5041983;28;20070;-71
2022/11/06 09:21:55;;;;;;;0.88;0.60;;;10.70;99.90;;;;;;5044053;28;20036;-70
2022/11/06 09:24:21;;;;;;;3.88;0.55;;;10.70;99.90;;;;;;5043102;28;20489;-70
2022/11/06 09:26:47;;;;;;;2.40;0.80;;;10.70;99.90;;;;;;5047379;28;20063;-71
2022/11/06 09:29:12;;;;;;;3.20;0.98;;;10.70;99.90;;;;;;5041911;28;20044;-71
2022/11/06 09:31:38;;;;;;;3.13;0.80;;;10.80;99.90;;;;;;5046997;28;20045;-71
2022/11/06 09:34:03;;;;;;;1.45;0.80;;;10.80;99.90;;;;;;5047173;28;20028;-71
2022/11/06 09:36:29;;;;;;;5.18;0.80;;;10.90;99.90;;;;;;5051697;28;20033;-71
2022/11/06 09:38:54;;;;;;;3.60;0.50;;;10.90;99.90;;;;;;5046316;28;20736;-71
2022/11/06 09:41:34;;;;;;;1.48;0.73;;;11.00;99.90;;;;;;5049891;28;20079;-71
2022/11/06 09:44:26;;;;;;;1.38;0.50;;;11.10;99.90;;;;;;5043094;28;20041;-70
2022/11/06 09:46:55;;;;;;;1.00;0.57;;;11.10;99.90;;;;;;5042149;28;20361;-70
2022/11/06 09:49:48;;;;;;;1.30;0.60;;;11.10;99.90;;;;;;5044376;28;20053;-71
2022/11/06 09:52:27;;;;;;;1.13;0.70;;;11.10;99.90;;;;;;5054892;28;20178;-71
2022/11/06 09:55:05;;;;;;;2.88;0.65;;;11.10;99.90;;;;;;5033290;28;20304;-71
2022/11/06 09:57:54;;;;;;;1.48;0.60;;;11.10;99.90;;;;;;5042640;28;20041;-71
2022/11/06 10:00:20;;;;;;;1.67;0.52;;;11.20;99.90;;;;;;5047559;28;20055;-71
2022/11/06 10:02:56;;;;;;;1.83;0.68;;;11.20;99.90;;;;;;5052061;28;20040;-71
2022/11/06 10:05:27;;;;;;;1.60;0.70;;;11.20;99.90;;;;;;5028421;28;20670;-71
2022/11/06 10:07:57;;;;;;;1.65;0.40;;;11.20;99.90;;;;;;5051356;28;20271;-70
2022/11/06 10:10:39;;;;;;;1.90;0.70;;;11.30;99.90;;;;;;5044795;28;20052;-70
2022/11/06 10:13:54;;;;;;;1.15;0.60;;;11.30;99.90;;;;;;5054944;28;20528;-71
2022/11/06 10:16:38;;;;;;;1.85;0.70;;;11.40;99.90;;;;;;4995296;28;20042;-71
2022/11/06 10:19:12;;;;;;;1.05;0.57;;;11.40;99.90;;;;;;5036309;28;20271;-71
2022/11/06 10:21:55;;;;;;;1.17;0.70;;;11.40;99.90;;;;;;5025761;28;20040;-71
2022/11/06 10:24:28;;;;;;;1.10;0.60;;;11.40;99.90;;;;;;5051917;28;20075;-71
2022/11/06 10:26:55;;;;;;;1.40;0.47;;;11.40;99.90;;;;;;5029650;28;20395;-70
2022/11/06 10:29:24;;;;;;;0.98;0.40;;;11.40;99.90;;;;;;5040735;28;20041;-71
2022/11/06 10:32:02;;;;;;;1.95;0.80;;;11.40;99.90;;;;;;5043602;28;20041;-71
2022/11/06 10:34:45;;;;;;;1.90;0.98;;;11.50;99.90;;;;;;5048661;28;20033;-71
2022/11/06 10:37:28;;;;;;;0.80;0.60;;;11.50;99.90;;;;;;5028188;28;20036;-71
2022/11/06 10:39:57;;;;;;;1.65;0.88;;;11.50;99.90;;;;;;5031114;28;20064;-71
2022/11/06 10:42:35;;;;;;;0.52;0.40;;;11.50;99.90;;;;;;5038956;28;20048;-71
2022/11/06 10:45:13;;;;;;;1.35;0.60;;;11.50;99.90;;;;;;5040918;28;20045;-70
2022/11/06 10:47:45;;;;;;;1.08;0.47;;;11.40;99.90;;;;;;5047948;28;20659;-70
2022/11/06 10:50:14;;;;;;;1.45;0.60;;;11.40;99.90;;;;;;5053985;28;20098;-70
2022/11/06 10:52:57;;;;;;;1.33;0.82;;;11.40;99.90;;;;;;5056053;28;20041;-71
2022/11/06 10:55:53;;;;;;;1.58;0.77;;;11.40;99.90;;;;;;5042088;28;20041;-70
2022/11/06 10:58:27;;;;;;;3.53;1.10;;;11.40;99.90;;;;;;5036576;28;20449;-70
2022/11/06 11:00:58;;;;;;;3.75;0.90;;;11.40;99.90;;;;;;5051713;28;20075;-70
2022/11/06 11:03:45;;;;;;;1.65;0.63;;;11.30;99.90;;;;;;5048924;28;20529;-69
2022/11/06 11:06:11;;;;;;;2.17;0.57;;;11.40;99.90;;;;;;5046863;28;20049;-70
2022/11/06 11:08:46;;;;;;;2.58;0.73;;;11.40;99.90;;;;;;5040074;28;20048;-71
2022/11/06 11:11:17;;;;;;;1.33;0.77;;;11.40;99.90;;;;;;5049907;28;20087;-71
2022/11/06 11:13:49;;;;;;;1.38;0.70;;;11.50;99.90;;;;;;5045520;28;20049;-71
2022/11/06 11:16:21;;;;;;;1.40;0.55;;;11.50;99.90;;;;;;5048372;28;20091;-70
2022/11/06 11:18:48;;;;;;;5.70;1.00;;;11.60;99.90;;;;;;5048172;28;20048;-71
2022/11/06 11:21:26;;;;;;;1.25;0.60;;;11.70;99.90;;;;;;5036504;28;20045;-72
2022/11/06 11:24:10;;;;;;;1.08;0.57;;;11.70;99.90;;;;;;5038742;28;20049;-71
2022/11/06 11:26:59;;;;;;;1.73;0.80;;;11.80;99.90;;;;;;5029752;28;20111;-71
2022/11/06 11:29:28;;;;;;;2.03;0.80;;;11.80;99.90;;;;;;5039188;28;20053;-71
2022/11/06 11:32:00;;;;;;;1.65;0.50;;;11.80;99.90;;;;;;5039932;28;20099;-71
2022/11/06 11:34:29;;;;;;;4.97;1.08;;;11.70;99.90;;;;;;5042275;28;20037;-72
2022/11/06 11:36:58;;;;;;;1.15;0.60;;;11.80;99.90;;;;;;5048646;28;20033;-72
2022/11/06 11:39:36;;;;;;;3.95;0.73;;;11.90;99.90;;;;;;5047076;28;20182;-71
2022/11/06 11:42:20;;;;;;;1.38;0.68;;;11.90;99.90;;;;;;5047984;28;20416;-72
2022/11/06 11:44:46;;;;;;;1.33;0.73;;;11.90;99.90;;;;;;5044756;28;20052;-71
2022/11/06 11:47:23;;;;;;;1.17;0.60;;;11.90;99.90;;;;;;5046198;28;20049;-72
2022/11/06 11:49:49;;;;;;;1.33;0.70;;;11.90;99.90;;;;;;5047393;28;20041;-71
2022/11/06 11:52:19;;;;;;;1.23;0.60;;;11.90;99.90;;;;;;5045169;28;21366;-72
2022/11/06 11:54:50;;;;;;;1.80;0.43;;;12.00;99.90;;;;;;5044887;28;20086;-71
2022/11/06 11:57:23;;;;;;;4.25;0.77;;;12.00;99.90;;;;;;5023934;28;20487;-72
2022/11/06 11:59:56;;;;;;;1.75;0.75;;;12.00;99.90;;;;;;5047289;28;20037;-72
2022/11/06 12:02:28;;;;;;;2.35;0.80;;;12.00;99.90;;;;;;5048119;28;20399;-71
2022/11/06 12:04:58;;;;;;;1.42;0.70;;;12.10;99.90;;;;;;5044735;28;20032;-71
2022/11/06 12:07:32;;;;;;;0.82;0.50;;;12.00;99.90;;;;;;5040894;28;20563;-72
2022/11/06 12:09:59;;;;;;;1.10;0.30;;;12.00;99.90;;;;;;5040709;28;20079;-71
2022/11/06 12:12:30;;;;;;;2.20;0.40;;;12.00;99.90;;;;;;5026384;28;20043;-71
2022/11/06 12:15:26;;;;;;;4.93;1.33;;;12.10;99.90;;;;;;5044034;28;20084;-71
2022/11/06 12:18:05;;;;;;;1.33;0.57;;;12.10;99.90;;;;;;5040554;28;20063;-71
2022/11/06 12:21:02;;;;;;;6.40;1.88;;;12.10;99.90;;;;;;5052078;28;20502;-71
2022/11/06 12:24:16;;;;;;;1.13;0.68;;;12.10;99.90;;;;;;5037584;28;20422;-71
2022/11/06 12:26:54;;;;;;;4.38;1.08;;;12.20;99.90;;;;;;4957637;28;20043;-71
2022/11/06 12:29:25;;;;;;;2.08;1.00;;;12.20;99.90;;;;;;4960904;28;20046;-71
2022/11/06 12:32:03;;;;;;;1.50;0.57;;;12.20;99.90;;;;;;5013746;28;20330;-71
2022/11/06 12:34:57;;;;;;;2.30;0.47;;;12.20;99.90;;;;;;5049219;28;20190;-71
2022/11/06 12:37:43;;;;;;;0.73;0.55;;;12.20;99.90;;;;;;5038355;28;20037;-71
2022/11/06 12:40:20;;;;;;;3.95;0.50;;;12.20;99.90;;;;;;5043624;28;20044;-71
2022/11/06 12:43:12;;;;;;;4.45;2.47;;;12.20;99.90;;;;;;5040830;28;20037;-71
2022/11/06 12:45:52;;;;;;;1.02;0.60;;;12.20;99.90;;;;;;5048233;28;20040;-71
2022/11/06 12:49:03;;;;;;;1.65;0.77;;;12.20;99.90;;;;;;5047740;28;20098;-71
2022/11/06 12:51:39;;;;;;;1.13;0.70;;;12.10;99.90;;;;;;5054975;28;20066;-71
2022/11/06 12:54:37;;;;;;;2.78;1.00;;;12.10;99.90;;;;;;5041963;28;20094;-71
2022/11/06 12:57:09;;;;;;;2.00;0.73;;;12.10;99.90;;;;;;5042054;28;20048;-72
2022/11/06 12:59:53;;;;;;;0.77;0.43;;;12.00;99.90;;;;;;5025854;28;20044;-71
2022/11/06 13:02:37;;;;;;;0.50;0.30;;;12.00;99.90;;;;;;5027715;28;20052;-71
2022/11/06 13:05:25;;;;;;;1.23;0.50;;;11.90;99.90;;;;;;5040456;28;20139;-71
2022/11/06 13:08:10;;;;;;;4.35;0.73;;;12.00;99.90;;;;;;5045370;28;20075;-71
2022/11/06 13:10:49;;;;;;;1.38;0.68;;;12.00;99.90;;;;;;5046350;28;20103;-71
2022/11/06 13:13:36;;;;;;;2.28;0.70;;;11.90;99.90;;;;;;5029751;28;20457;-71
2022/11/06 13:16:12;;;;;;;1.73;0.60;;;11.90;99.90;;;;;;5049085;28;20032;-71
2022/11/06 13:18:43;;;;;;;2.97;0.65;;;11.90;99.90;;;;;;5043215;28;20556;-71
2022/11/06 13:21:54;;;;;;;2.88;0.60;;;12.00;99.90;;;;;;5041933;28;20044;-71
2022/11/06 13:25:04;;;;;;;1.30;0.77;;;11.90;99.90;;;;;;5034669;28;20145;-71
2022/11/06 13:27:44;;;;;;;2.17;0.90;;;11.90;99.90;;;;;;5047595;28;20178;-71
2022/11/06 13:30:21;;;;;;;2.75;0.60;;;12.00;99.90;;;;;;5046209;28;21254;-72